createdAt,value
2019-04-14T00:00:03.553Z,10.75
2019-04-14T00:02:36.539Z,10.48
2019-04-14T00:05:08.372Z,11.00
2019-04-14T00:07:36.706Z,10.45
2019-04-14T00:10:09.352Z,10.82
2019-04-14T00:12:38.434Z,10.70
2019-04-14T00:15:21.127Z,11.03
2019-04-14T00:17:39.177Z,10.25
2019-04-14T00:20:07.436Z,10.38
2019-04-14T00:22:35.728Z,10.72
2019-04-14T00:25:06.457Z,10.65
2019-04-14T00:27:35.159Z,10.20
2019-04-14T00:30:06.187Z,10.30
2019-04-14T00:32:36.039Z,10.43
2019-04-14T00:35:06.553Z,10.58
2019-04-14T00:37:36.444Z,10.58
2019-04-14T00:40:08.300Z,10.95
2019-04-14T00:42:38.764Z,10.18
2019-04-14T00:45:09.217Z,10.53
2019-04-14T00:47:51.798Z,9.65
2019-04-14T00:50:10.547Z,10.36
2019-04-14T00:52:39.449Z,10.70
2019-04-14T00:55:07.736Z,10.05
2019-04-14T00:57:36.060Z,11.45
2019-04-14T01:00:05.998Z,10.70
2019-04-14T01:02:34.378Z,10.90
2019-04-14T01:05:02.629Z,10.43
2019-04-14T01:07:30.794Z,10.80
2019-04-14T01:09:59.686Z,10.85
2019-04-14T01:12:27.934Z,10.98
2019-04-14T01:14:56.484Z,11.45
2019-04-14T01:17:24.689Z,10.77
2019-04-14T01:19:52.943Z,11.03
2019-04-14T01:22:21.169Z,10.80
2019-04-14T01:24:49.406Z,10.48
2019-04-14T01:27:18.844Z,10.50
2019-04-14T01:29:47.393Z,10.87
2019-04-14T01:32:15.774Z,11.30
2019-04-14T01:34:43.992Z,11.00
2019-04-14T01:37:12.230Z,10.43
2019-04-14T01:39:41.459Z,10.45
2019-04-14T01:42:09.779Z,11.12
2019-04-14T01:44:37.989Z,10.60
2019-04-14T01:47:07.298Z,10.72
2019-04-14T01:49:37.626Z,11.10
2019-04-14T01:52:08.188Z,10.20
2019-04-14T01:54:47.393Z,10.78
2019-04-14T01:57:32.875Z,11.20
2019-04-14T02:00:03.346Z,10.25
2019-04-14T02:02:31.572Z,10.75
2019-04-14T02:05:00.014Z,10.88
2019-04-14T02:07:28.234Z,10.70
2019-04-14T02:09:57.544Z,10.72
2019-04-14T02:12:26.156Z,10.00
2019-04-14T02:14:54.539Z,10.60
2019-04-14T02:17:24.212Z,11.20
2019-04-14T02:19:52.512Z,11.57
2019-04-14T02:22:20.696Z,10.23
2019-04-14T02:24:50.354Z,11.30
2019-04-14T02:27:18.970Z,11.22
2019-04-14T02:29:47.399Z,12.00
2019-04-14T02:32:45.247Z,11.57
2019-04-14T02:35:16.623Z,11.38
2019-04-14T02:37:44.764Z,12.28
2019-04-14T02:42:40.216Z,10.68
2019-04-14T02:45:24.099Z,11.45
2019-04-14T02:47:53.803Z,11.17
2019-04-14T02:50:14.239Z,11.38
2019-04-14T02:52:46.545Z,11.55
2019-04-14T02:55:08.727Z,11.08
2019-04-14T03:00:18.893Z,11.20
2019-04-14T03:05:09.509Z,10.93
2019-04-14T03:07:45.819Z,11.15
2019-04-14T03:10:12.565Z,11.78
2019-04-14T03:12:46.447Z,11.35
2019-04-14T03:15:13.036Z,11.05
2019-04-14T03:17:47.230Z,11.83
2019-04-14T03:23:00.764Z,10.55
2019-04-14T03:25:22.521Z,11.28
2019-04-14T03:28:19.481Z,11.78
2019-04-14T03:36:05.760Z,10.50
2019-04-14T03:38:05.068Z,10.65
2019-04-14T03:43:09.996Z,11.68
2019-04-14T03:45:46.809Z,11.12
2019-04-14T03:50:37.524Z,10.98
2019-04-14T03:55:37.270Z,11.08
2019-04-14T03:58:00.636Z,11.03
2019-04-14T04:00:29.194Z,10.90
2019-04-14T04:02:57.657Z,11.05
2019-04-14T04:05:26.041Z,11.23
2019-04-14T04:07:54.582Z,10.95
2019-04-14T04:10:22.823Z,10.50
2019-04-14T04:12:51.167Z,11.28
2019-04-14T04:15:19.452Z,11.40
2019-04-14T04:17:49.500Z,11.43
2019-04-14T04:20:19.665Z,11.53
2019-04-14T04:22:58.710Z,10.30
2019-04-14T04:25:36.369Z,11.05
2019-04-14T04:28:16.501Z,11.28
2019-04-14T04:30:49.406Z,11.53
2019-04-14T04:33:35.847Z,10.83
2019-04-14T04:36:05.702Z,10.95
2019-04-14T04:38:42.034Z,9.83
2019-04-14T04:41:10.250Z,11.35
2019-04-14T04:43:38.802Z,11.20
2019-04-14T04:46:07.090Z,11.20
2019-04-14T04:48:35.324Z,10.43
2019-04-14T04:51:05.008Z,10.55
2019-04-14T04:53:33.262Z,10.40
2019-04-14T04:56:01.578Z,11.08
2019-04-14T04:58:30.527Z,10.10
2019-04-14T05:00:59.588Z,10.00
2019-04-14T05:03:29.614Z,9.58
2019-04-14T05:06:30.971Z,10.98
2019-04-14T05:09:03.644Z,10.63
2019-04-14T05:11:36.268Z,10.23
2019-04-14T05:14:06.551Z,10.32
2019-04-14T05:16:34.782Z,10.65
2019-04-14T05:19:16.203Z,10.63
2019-04-14T05:21:34.299Z,10.50
2019-04-14T05:24:02.800Z,9.80
2019-04-14T05:26:31.036Z,10.32
2019-04-14T05:28:59.633Z,9.55
2019-04-14T05:31:29.438Z,10.32
2019-04-14T05:33:58.257Z,10.35
2019-04-14T05:36:26.536Z,9.13
2019-04-14T05:38:56.007Z,9.98
2019-04-14T05:41:24.469Z,10.30
2019-04-14T05:43:57.072Z,10.30
2019-04-14T05:46:23.057Z,10.10
2019-04-14T05:48:53.509Z,9.73
2019-04-14T05:51:23.324Z,9.78
2019-04-14T05:53:52.383Z,11.03
2019-04-14T05:56:20.739Z,9.70
2019-04-14T05:58:49.328Z,9.43
2019-04-14T06:01:18.136Z,8.68
2019-04-14T06:03:47.508Z,9.55
2019-04-14T06:06:15.810Z,8.93
2019-04-14T06:08:44.019Z,9.98
2019-04-14T06:11:12.219Z,9.25
2019-04-14T06:13:40.449Z,9.23
2019-04-14T06:16:08.972Z,9.58
2019-04-14T06:18:37.498Z,9.35
2019-04-14T06:21:05.706Z,9.30
2019-04-14T06:23:33.942Z,9.18
2019-04-14T06:26:02.167Z,8.98
2019-04-14T06:28:30.402Z,8.98
2019-04-14T06:31:02.704Z,9.50
2019-04-14T06:33:41.281Z,9.45
2019-04-14T06:36:11.121Z,8.53
2019-04-14T06:38:40.977Z,9.50
2019-04-14T06:41:10.842Z,9.05
2019-04-14T06:43:48.283Z,8.98
2019-04-14T06:46:08.995Z,9.23
2019-04-14T06:48:37.210Z,8.43
2019-04-14T06:51:05.428Z,8.58
2019-04-14T06:53:33.661Z,8.48
2019-04-14T06:56:01.957Z,8.63
2019-04-14T06:58:30.453Z,8.83
2019-04-14T07:00:59.663Z,8.68
2019-04-14T07:03:28.127Z,8.55
2019-04-14T07:05:56.338Z,8.73
2019-04-14T07:08:24.548Z,8.67
2019-04-14T07:10:52.753Z,8.43
2019-04-14T07:13:20.958Z,8.25
2019-04-14T07:15:49.157Z,8.05
2019-04-14T07:18:17.377Z,7.78
2019-04-14T07:20:45.854Z,7.65
2019-04-14T07:23:14.155Z,7.90
2019-04-14T07:25:42.404Z,7.65
2019-04-14T07:28:10.596Z,8.33
2019-04-14T07:30:43.491Z,7.42
2019-04-14T07:33:13.327Z,7.20
2019-04-14T07:35:46.172Z,7.95
2019-04-14T07:38:21.991Z,7.55
2019-04-14T07:41:04.465Z,7.67
2019-04-14T07:43:50.420Z,7.72
2019-04-14T07:46:20.530Z,7.67
2019-04-14T07:48:50.375Z,7.92
2019-04-14T07:51:20.254Z,7.53
2019-04-14T07:53:59.245Z,7.75
2019-04-14T07:56:29.103Z,7.60
2019-04-14T07:59:04.763Z,7.40
2019-04-14T08:01:37.962Z,8.08
2019-04-14T08:04:07.800Z,7.75
2019-04-14T08:06:38.386Z,6.80
2019-04-14T08:09:07.417Z,7.08
2019-04-14T08:11:35.784Z,6.83
2019-04-14T08:14:04.279Z,6.80
2019-04-14T08:16:32.482Z,6.72
2019-04-14T08:19:00.994Z,7.10
2019-04-14T08:21:29.216Z,7.65
2019-04-14T08:23:57.749Z,7.08
2019-04-14T08:26:26.257Z,7.00
2019-04-14T08:28:54.496Z,6.50
2019-04-14T08:31:23.507Z,6.87
2019-04-14T08:33:51.695Z,6.97
2019-04-14T08:36:20.180Z,6.78
2019-04-14T08:38:48.794Z,6.83
2019-04-14T08:41:16.987Z,6.43
2019-04-14T08:43:46.826Z,6.42
2019-04-14T08:46:19.401Z,6.92
2019-04-14T08:48:52.113Z,7.20
2019-04-14T08:51:24.508Z,6.77
2019-04-14T08:53:59.848Z,7.62
2019-04-14T08:56:44.695Z,7.37
2019-04-14T08:59:23.873Z,7.78
2019-04-14T09:01:56.506Z,7.50
2019-04-14T09:04:42.621Z,7.60
2019-04-14T09:07:12.471Z,7.65
2019-04-14T09:09:57.392Z,7.75
2019-04-14T09:12:27.276Z,7.60
2019-04-14T09:14:57.296Z,7.25
2019-04-14T09:17:26.702Z,7.60
2019-04-14T09:19:54.903Z,8.20
2019-04-14T09:22:23.115Z,7.40
2019-04-14T09:24:51.330Z,7.97
2019-04-14T09:27:19.551Z,7.95
2019-04-14T09:29:48.074Z,8.28
2019-04-14T09:32:16.575Z,7.07
2019-04-14T09:34:44.779Z,8.08
2019-04-14T09:37:13.158Z,7.40
2019-04-14T09:39:41.387Z,7.50
2019-04-14T09:42:09.594Z,8.33
2019-04-14T09:44:37.817Z,8.35
2019-04-14T09:47:06.305Z,7.67
2019-04-14T09:49:34.690Z,7.67
2019-04-14T09:52:03.188Z,7.90
2019-04-14T09:54:31.657Z,7.40
2019-04-14T09:56:59.879Z,7.70
2019-04-14T09:59:28.090Z,6.95
2019-04-14T10:01:56.401Z,6.83
2019-04-14T10:04:24.613Z,7.40
2019-04-14T10:06:52.829Z,7.45
2019-04-14T10:09:21.043Z,6.47
2019-04-14T10:11:53.508Z,7.12
2019-04-14T10:14:19.588Z,7.97
2019-04-14T10:16:47.796Z,7.47
2019-04-14T10:19:16.085Z,7.60
2019-04-14T10:21:44.393Z,7.40
2019-04-14T10:24:12.737Z,7.95
2019-04-14T10:26:41.257Z,7.62
2019-04-14T10:29:10.360Z,8.46
2019-04-14T10:31:38.576Z,8.63
2019-04-14T10:34:09.759Z,9.60
2019-04-14T10:36:36.972Z,9.63
2019-04-14T10:39:06.807Z,9.30
2019-04-14T10:41:35.034Z,10.38
2019-04-14T10:44:03.298Z,10.50
2019-04-14T10:46:31.954Z,10.43
2019-04-14T10:49:00.207Z,11.12
2019-04-14T10:51:30.214Z,10.13
2019-04-14T10:53:58.676Z,10.63
2019-04-14T10:56:27.758Z,11.23
2019-04-14T10:58:55.966Z,10.40
2019-04-14T11:01:24.193Z,11.30
2019-04-14T11:03:52.596Z,10.08
2019-04-14T11:06:38.643Z,10.70
2019-04-14T11:09:09.121Z,11.08
2019-04-14T11:11:37.320Z,9.63
2019-04-14T11:14:05.922Z,10.68
2019-04-14T11:16:34.160Z,10.15
2019-04-14T11:19:02.385Z,10.43
2019-04-14T11:21:41.999Z,9.83
2019-04-14T11:24:00.912Z,8.93
2019-04-14T11:26:29.171Z,9.83
2019-04-14T11:28:57.436Z,9.53
2019-04-14T11:31:45.954Z,8.80
2019-04-14T11:34:15.806Z,8.33
2019-04-14T11:37:03.822Z,8.80
2019-04-14T11:39:32.461Z,9.35
2019-04-14T11:42:00.846Z,8.43
2019-04-14T11:44:29.337Z,8.87
2019-04-14T11:46:57.558Z,8.90
2019-04-14T11:49:26.023Z,8.98
2019-04-14T11:51:55.853Z,8.58
2019-04-14T11:54:24.070Z,8.73
2019-04-14T11:56:52.591Z,8.75
2019-04-14T11:59:22.779Z,8.77
2019-04-14T12:01:58.387Z,8.38
2019-04-14T12:04:28.230Z,8.00
2019-04-14T12:07:10.547Z,8.25
2019-04-14T12:09:40.703Z,8.80
2019-04-14T12:12:10.173Z,8.83
2019-04-14T12:14:38.787Z,8.35
2019-04-14T12:17:07.938Z,8.75
2019-04-14T12:19:36.179Z,8.65
2019-04-14T12:22:08.371Z,8.90
2019-04-14T12:24:34.511Z,8.50
2019-04-14T12:27:03.015Z,9.30
2019-04-14T12:29:32.465Z,9.90
2019-04-14T12:32:01.770Z,9.68
2019-04-14T12:34:30.223Z,10.03
2019-04-14T12:36:58.842Z,9.70
2019-04-14T12:39:27.016Z,9.73
2019-04-14T12:42:05.490Z,9.90
2019-04-14T12:44:47.759Z,9.48
2019-04-14T12:47:17.613Z,9.40
2019-04-14T12:49:53.155Z,9.85
2019-04-14T12:52:23.112Z,9.98
2019-04-14T12:54:51.320Z,9.93
2019-04-14T12:57:27.876Z,10.43
2019-04-14T12:59:56.086Z,9.30
2019-04-14T13:02:28.342Z,9.77
2019-04-14T13:04:56.958Z,10.30
2019-04-14T13:07:25.498Z,11.18
2019-04-14T13:09:53.707Z,10.55
2019-04-14T13:12:21.939Z,10.95
2019-04-14T13:14:50.542Z,11.10
2019-04-14T13:17:19.139Z,11.30
2019-04-14T13:19:47.385Z,11.48
2019-04-14T13:22:15.590Z,10.53
2019-04-14T13:24:43.825Z,10.40
2019-04-14T13:27:12.177Z,10.72
2019-04-14T13:29:41.270Z,10.95
2019-04-14T13:32:10.719Z,11.40
2019-04-14T13:34:39.191Z,10.48
2019-04-14T13:37:07.508Z,10.43
2019-04-14T13:39:35.790Z,10.38
2019-04-14T13:42:04.334Z,10.50
2019-04-14T13:44:32.855Z,10.55
2019-04-14T13:47:01.314Z,10.60
2019-04-14T13:49:29.499Z,11.80
2019-04-14T13:51:57.711Z,10.75
2019-04-14T13:54:26.222Z,11.50
2019-04-14T13:56:54.542Z,11.80
2019-04-14T13:59:22.779Z,11.27
2019-04-14T14:01:50.993Z,10.13
2019-04-14T14:04:19.191Z,11.35
2019-04-14T14:06:47.705Z,11.65
2019-04-14T14:09:15.957Z,11.22
2019-04-14T14:11:48.854Z,11.80
2019-04-14T14:14:18.638Z,12.00
2019-04-14T14:17:06.926Z,11.33
2019-04-14T14:19:38.078Z,11.90
2019-04-14T14:22:11.030Z,11.75
2019-04-14T14:24:43.610Z,12.13
2019-04-14T14:27:12.128Z,10.65
2019-04-14T14:29:40.327Z,11.83
2019-04-14T14:32:10.516Z,12.25
2019-04-14T14:34:38.987Z,11.88
2019-04-14T14:37:07.579Z,11.63
2019-04-14T14:39:36.404Z,12.30
2019-04-14T14:42:04.637Z,11.03
2019-04-14T14:44:40.008Z,12.53
2019-04-14T14:47:19.151Z,11.57
2019-04-14T14:50:05.210Z,11.88
2019-04-14T14:52:34.900Z,12.37
2019-04-14T14:55:03.116Z,12.07
2019-04-14T14:57:31.342Z,11.73
2019-04-14T14:59:59.874Z,11.78
2019-04-14T15:02:28.086Z,12.40
2019-04-14T15:04:56.317Z,11.48
2019-04-14T15:07:24.536Z,11.30
2019-04-14T15:09:53.648Z,12.15
2019-04-14T15:12:21.937Z,11.63
2019-04-14T15:14:50.167Z,12.15
2019-04-14T15:17:18.763Z,11.90
2019-04-14T15:19:47.288Z,11.63
2019-04-14T15:22:15.500Z,11.73
2019-04-14T15:24:43.725Z,12.18
2019-04-14T15:27:11.952Z,12.15
2019-04-14T15:29:40.184Z,11.93
2019-04-14T15:32:08.364Z,11.80
2019-04-14T15:34:36.612Z,11.43
2019-04-14T15:37:04.832Z,12.03
2019-04-14T15:39:33.060Z,11.63
2019-04-14T15:42:01.544Z,11.30
2019-04-14T15:44:29.746Z,10.43
2019-04-14T15:46:57.988Z,9.75
2019-04-14T15:49:26.515Z,9.88
2019-04-14T15:51:55.115Z,9.78
2019-04-14T15:54:25.591Z,9.10
2019-04-14T15:56:55.948Z,8.95
2019-04-14T15:59:31.292Z,9.63
2019-04-14T16:02:01.498Z,8.80
2019-04-14T16:04:31.355Z,9.03
2019-04-14T16:07:10.657Z,9.25
2019-04-14T16:09:57.369Z,9.10
2019-04-14T16:12:39.457Z,9.35
2019-04-14T16:15:18.581Z,8.25
2019-04-14T16:17:51.497Z,8.13
2019-04-14T16:20:24.175Z,8.73
2019-04-14T16:22:52.373Z,8.30
2019-04-14T16:25:22.292Z,7.92
2019-04-14T16:27:52.468Z,8.20
2019-04-14T16:30:37.645Z,7.42
2019-04-14T16:33:07.515Z,7.53
2019-04-14T16:35:37.358Z,7.70
2019-04-14T16:38:05.557Z,7.60
2019-04-14T16:40:34.272Z,8.18
2019-04-14T16:43:02.846Z,7.78
2019-04-14T16:45:31.390Z,7.55
2019-04-14T16:47:59.684Z,6.97
2019-04-14T16:50:27.890Z,6.70
2019-04-14T16:52:57.748Z,7.10
2019-04-14T16:55:29.713Z,7.28
2019-04-14T16:58:16.152Z,6.67
2019-04-14T17:00:46.377Z,7.05
2019-04-14T17:03:15.030Z,7.28
2019-04-14T17:05:43.234Z,6.47
2019-04-14T17:08:11.994Z,6.00
2019-04-14T17:10:40.675Z,7.10
2019-04-14T17:13:09.362Z,6.58
2019-04-14T17:15:55.290Z,5.92
2019-04-14T17:18:31.100Z,6.53
2019-04-14T17:21:04.566Z,6.85
2019-04-14T17:26:12.555Z,6.58
2019-04-14T17:28:57.123Z,6.15
2019-04-14T17:31:26.973Z,6.83
2019-04-14T17:33:56.830Z,7.55
2019-04-14T17:36:30.532Z,6.50
2019-04-14T17:39:03.220Z,6.65
2019-04-14T17:41:33.142Z,6.90
2019-04-14T17:44:03.053Z,6.65
2019-04-14T17:46:49.310Z,6.55
2019-04-14T17:49:35.752Z,7.12
2019-04-14T17:52:21.911Z,6.85
2019-04-14T17:55:08.044Z,6.55
2019-04-14T17:57:43.426Z,6.33
2019-04-14T18:00:22.329Z,7.35
2019-04-14T18:02:54.961Z,6.35
2019-04-14T18:05:30.829Z,6.97
2019-04-14T18:08:00.690Z,7.20
2019-04-14T18:10:36.593Z,6.78
2019-04-14T18:13:06.476Z,7.05
2019-04-14T18:15:36.299Z,6.28
2019-04-14T18:18:08.950Z,6.90
2019-04-14T18:20:45.078Z,6.80
2019-04-14T18:23:13.654Z,7.10
2019-04-14T18:25:41.877Z,7.75
2019-04-14T18:28:18.174Z,7.12
2019-04-14T18:30:53.999Z,7.17
2019-04-14T18:33:30.198Z,6.83
2019-04-14T18:36:00.071Z,7.55
2019-04-14T18:38:39.038Z,7.45
2019-04-14T18:41:08.932Z,7.40
2019-04-14T18:43:41.530Z,7.35
2019-04-14T18:46:14.494Z,6.97
2019-04-14T18:48:47.243Z,6.50
2019-04-14T18:51:29.351Z,7.70
2019-04-14T18:53:59.206Z,7.03
2019-04-14T18:56:41.439Z,7.33
2019-04-14T18:59:27.477Z,7.76
2019-04-14T19:01:57.320Z,7.97
2019-04-14T19:04:25.536Z,7.20
2019-04-14T19:06:53.742Z,7.45
2019-04-14T19:09:21.950Z,7.33
2019-04-14T19:11:51.875Z,6.85
2019-04-14T19:14:21.823Z,7.83
2019-04-14T19:16:51.650Z,7.95
2019-04-14T19:19:21.497Z,6.70
2019-04-14T19:21:49.720Z,7.50
2019-04-14T19:24:18.349Z,7.53
2019-04-14T19:26:46.574Z,6.83
2019-04-14T19:29:14.805Z,7.45
2019-04-14T19:31:43.309Z,7.60
2019-04-14T19:34:12.669Z,7.72
2019-04-14T19:36:40.876Z,7.45
2019-04-14T19:39:11.422Z,8.38
2019-04-14T19:41:39.673Z,7.33
2019-04-14T19:44:07.865Z,7.80
2019-04-14T19:46:36.145Z,7.08
2019-04-14T19:49:04.700Z,7.22
2019-04-14T19:51:33.211Z,7.20
2019-04-14T19:54:01.378Z,6.92
2019-04-14T19:56:30.423Z,7.20
2019-04-14T19:58:58.651Z,7.25
2019-04-14T20:01:26.939Z,7.85
2019-04-14T20:03:55.188Z,7.42
2019-04-14T20:06:23.388Z,7.00
2019-04-14T20:08:51.674Z,6.78
2019-04-14T20:11:20.232Z,7.10
2019-04-14T20:13:48.456Z,6.90
2019-04-14T20:16:18.306Z,6.80
2019-04-14T20:18:48.225Z,6.28
2019-04-14T20:21:24.176Z,7.20
2019-04-14T20:23:56.723Z,6.75
2019-04-14T20:26:41.355Z,5.77
2019-04-14T20:29:27.718Z,6.58
2019-04-14T20:32:13.843Z,6.47
2019-04-14T20:34:42.156Z,6.55
2019-04-14T20:37:10.524Z,6.20
2019-04-14T20:39:38.959Z,6.35
2019-04-14T20:42:08.140Z,5.80
2019-04-14T20:44:36.735Z,5.85
2019-04-14T20:47:06.810Z,5.90
2019-04-14T20:49:35.005Z,5.53
2019-04-14T20:52:03.204Z,6.20
2019-04-14T20:54:31.427Z,5.55
2019-04-14T20:56:59.950Z,5.17
2019-04-14T20:59:28.291Z,5.43
2019-04-14T21:01:58.127Z,4.75
2019-04-14T21:04:44.937Z,5.00
2019-04-14T21:07:20.714Z,5.72
2019-04-14T21:09:53.281Z,4.15
2019-04-14T21:12:23.103Z,5.03
2019-04-14T21:14:56.373Z,4.55
2019-04-14T21:17:28.879Z,4.78
2019-04-14T21:20:07.876Z,4.15
2019-04-14T21:22:37.720Z,4.05
2019-04-14T21:25:24.337Z,4.67
2019-04-14T21:28:03.232Z,4.55
2019-04-14T21:30:48.278Z,3.92
2019-04-14T21:33:20.918Z,4.08
2019-04-14T21:35:51.104Z,4.05
2019-04-14T21:38:20.950Z,3.67
2019-04-14T21:40:50.852Z,3.47
2019-04-14T21:43:19.070Z,3.72
2019-04-14T21:45:47.323Z,3.85
2019-04-14T21:48:15.520Z,3.58
2019-04-14T21:50:43.729Z,3.62
2019-04-14T21:53:12.201Z,3.20
2019-04-14T21:55:40.410Z,3.42
2019-04-14T21:58:10.606Z,3.25
2019-04-14T22:01:01.688Z,3.27
2019-04-14T22:03:31.535Z,3.58
2019-04-14T22:06:01.639Z,3.52
2019-04-14T22:08:34.397Z,3.60
2019-04-14T22:11:04.532Z,3.50
2019-04-14T22:13:33.043Z,3.42
2019-04-14T22:16:01.897Z,3.20
2019-04-14T22:18:30.106Z,3.70
2019-04-14T22:20:58.308Z,3.08
2019-04-14T22:23:26.528Z,3.40
2019-04-14T22:25:54.752Z,3.52
2019-04-14T22:28:22.939Z,3.70
2019-04-14T22:30:51.180Z,3.20
2019-04-14T22:33:19.395Z,3.47
2019-04-14T22:35:47.597Z,3.47
2019-04-14T22:38:15.832Z,4.00
2019-04-14T22:40:44.351Z,4.47
2019-04-14T22:43:13.529Z,3.80
2019-04-14T22:45:41.765Z,3.60
2019-04-14T22:48:10.355Z,3.52
2019-04-14T22:50:38.656Z,3.50
2019-04-14T22:53:06.963Z,3.87
2019-04-14T22:55:35.185Z,3.05
2019-04-14T22:58:03.732Z,3.40
2019-04-14T23:00:42.515Z,3.60
2019-04-14T23:03:18.517Z,2.95
2019-04-14T23:05:49.114Z,3.10
2019-04-14T23:08:18.967Z,3.20
2019-04-14T23:11:03.544Z,3.58
2019-04-14T23:13:49.537Z,3.60
2019-04-14T23:16:19.479Z,3.35
2019-04-14T23:18:52.612Z,3.72
2019-04-14T23:21:28.201Z,4.03
2019-04-14T23:24:06.969Z,3.92
2019-04-14T23:26:35.166Z,4.00
2019-04-14T23:29:03.729Z,4.25
2019-04-14T23:31:32.418Z,3.80
2019-04-14T23:34:00.969Z,4.65
2019-04-14T23:36:29.189Z,3.75
2019-04-14T23:38:57.399Z,3.62
2019-04-14T23:41:25.622Z,3.63
2019-04-14T23:43:53.831Z,3.47
2019-04-14T23:46:22.119Z,3.33
2019-04-14T23:48:50.366Z,3.45
2019-04-14T23:51:20.444Z,4.55
2019-04-14T23:53:48.609Z,3.50
2019-04-14T23:56:16.827Z,3.50
2019-04-14T23:58:45.041Z,3.70
